createdAt,value
2023-05-22T05:02:31.461Z,2.53
2023-05-22T05:07:38.631Z,2.65
2023-05-22T05:12:42.172Z,3.65
2023-05-22T05:17:47.624Z,2.40
2023-05-22T05:22:51.496Z,2.58
2023-05-22T05:27:56.432Z,2.10
2023-05-22T05:33:01.924Z,2.30
2023-05-22T05:38:06.840Z,2.15
2023-05-22T05:43:10.743Z,1.85
2023-05-22T05:48:16.707Z,2.40
2023-05-22T05:53:21.006Z,2.28
2023-05-22T06:03:31.268Z,1.87
2023-05-22T06:08:36.292Z,3.03
2023-05-22T06:13:39.977Z,1.83
2023-05-22T06:18:46.368Z,1.70
2023-05-22T06:23:50.910Z,1.62
2023-05-22T06:28:55.884Z,1.70
2023-05-22T06:34:02.433Z,1.73
2023-05-22T06:39:06.956Z,1.50
2023-05-22T06:44:14.900Z,1.73
2023-05-22T06:49:19.948Z,2.23
2023-05-22T06:54:23.817Z,1.45
2023-05-22T06:59:27.900Z,1.45
2023-05-22T07:04:36.853Z,2.47
2023-05-22T07:09:41.869Z,1.52
2023-05-22T07:14:45.750Z,1.15
2023-05-22T07:19:51.113Z,1.33
2023-05-22T07:24:55.023Z,1.40
2023-05-22T07:29:59.736Z,1.30
2023-05-22T07:35:06.038Z,1.83
2023-05-22T07:40:11.474Z,1.15
2023-05-22T07:45:15.604Z,1.58
2023-05-22T07:50:21.010Z,1.33
2023-05-22T07:55:25.041Z,1.75
2023-05-22T08:00:29.445Z,1.80
2023-05-22T08:05:34.542Z,1.17
2023-05-22T08:15:44.719Z,1.92
2023-05-22T08:20:49.695Z,1.60
2023-05-22T08:25:53.291Z,1.37
2023-05-22T08:30:56.951Z,1.77
2023-05-22T08:36:03.438Z,1.00
2023-05-22T08:41:08.927Z,1.65
2023-05-22T08:46:16.203Z,0.90
2023-05-22T08:51:23.082Z,1.00
2023-05-22T08:56:29.486Z,1.52
2023-05-22T09:01:34.296Z,1.60
2023-05-22T09:06:39.729Z,1.62
2023-05-22T09:11:43.467Z,1.25
2023-05-22T09:16:47.752Z,1.27
2023-05-22T09:21:52.859Z,1.45
2023-05-22T09:26:56.510Z,1.10
2023-05-22T09:32:01.334Z,1.00
2023-05-22T09:37:07.075Z,1.27
2023-05-22T09:42:11.717Z,1.17
2023-05-22T09:47:15.687Z,1.08
2023-05-22T09:52:21.943Z,1.08
2023-05-22T09:57:26.868Z,1.12
2023-05-22T10:02:31.950Z,1.08
2023-05-22T10:07:42.808Z,1.25
2023-05-22T10:12:52.389Z,1.20
2023-05-22T10:17:56.431Z,1.12
2023-05-22T10:23:04.516Z,1.23
2023-05-22T10:28:09.929Z,1.37
2023-05-22T10:33:18.789Z,1.12
2023-05-22T10:38:59.274Z,1.25
2023-05-22T10:44:04.173Z,1.30
2023-05-22T10:49:08.703Z,0.90
2023-05-22T10:54:13.688Z,1.00
2023-05-22T10:59:17.365Z,0.93
2023-05-22T11:04:21.203Z,1.20
2023-05-22T11:09:32.089Z,0.98
2023-05-22T11:14:38.257Z,1.08
2023-05-22T11:19:42.807Z,0.90
2023-05-22T11:24:47.984Z,1.33
2023-05-22T11:29:51.940Z,1.10
2023-05-22T11:40:05.931Z,0.85
2023-05-22T11:45:10.886Z,1.00
2023-05-22T11:50:17.961Z,0.70
2023-05-22T11:55:28.288Z,0.62
2023-05-22T12:00:32.550Z,0.80
2023-05-22T12:05:36.293Z,0.85
2023-05-22T12:10:48.630Z,0.55
2023-05-22T12:15:53.941Z,0.80
2023-05-22T12:20:57.902Z,0.73
2023-05-22T12:31:07.222Z,0.80
2023-05-22T12:36:11.544Z,0.62
2023-05-22T12:41:16.583Z,0.68
2023-05-22T12:46:20.259Z,0.90
2023-05-22T12:51:24.398Z,0.90
2023-05-22T12:56:29.820Z,0.98
2023-05-22T13:01:33.756Z,0.77
2023-05-22T13:06:37.387Z,1.08
2023-05-22T13:11:42.450Z,0.80
2023-05-22T13:16:46.127Z,0.88
2023-05-22T13:21:49.903Z,1.12
2023-05-22T13:26:54.829Z,1.17
2023-05-22T13:31:58.483Z,1.23
2023-05-22T13:37:02.391Z,1.12
2023-05-22T13:47:11.852Z,1.20
2023-05-22T13:57:20.356Z,1.20
2023-05-22T14:02:24.294Z,0.98
2023-05-22T14:07:31.287Z,1.33
2023-05-22T14:12:36.459Z,1.58
2023-05-22T14:17:40.109Z,0.90
2023-05-22T14:22:56.516Z,0.93
2023-05-22T14:28:02.981Z,1.20
2023-05-22T14:33:07.311Z,1.17
2023-05-22T14:38:11.154Z,1.20
2023-05-22T14:43:16.183Z,1.00
2023-05-22T14:48:20.588Z,1.00
2023-05-22T14:53:24.510Z,1.33
2023-05-22T14:58:29.522Z,1.40
2023-05-22T15:03:33.438Z,1.05
2023-05-22T15:08:37.661Z,1.30
2023-05-22T15:23:51.277Z,1.70
2023-05-22T15:29:01.128Z,1.08
2023-05-22T15:34:04.931Z,1.00
2023-05-22T15:39:08.538Z,1.00
2023-05-22T15:44:13.572Z,1.23
2023-05-22T15:49:17.166Z,1.10
2023-05-22T15:54:21.043Z,1.08
2023-05-22T15:59:26.034Z,1.37
2023-05-22T16:04:29.681Z,1.55
2023-05-22T16:09:33.312Z,1.70
2023-05-22T16:14:39.862Z,1.20
2023-05-22T16:19:44.051Z,1.75
2023-05-22T16:29:52.686Z,1.17
2023-05-22T16:34:56.300Z,1.20
2023-05-22T16:39:59.922Z,1.43
2023-05-22T16:45:05.294Z,1.10
2023-05-22T16:50:09.804Z,1.30
2023-05-22T16:55:13.503Z,1.30
2023-05-22T17:00:19.544Z,1.23
2023-05-22T17:05:24.160Z,1.15
2023-05-22T17:15:32.736Z,1.15
2023-05-22T17:20:36.317Z,1.45
2023-05-22T17:25:40.307Z,1.40
2023-05-22T17:30:46.642Z,1.33
2023-05-22T17:35:50.981Z,1.20
2023-05-22T17:45:59.414Z,1.45
2023-05-22T17:51:03.540Z,1.75
2023-05-22T17:56:07.503Z,1.50
2023-05-22T18:01:12.544Z,1.58
2023-05-22T18:06:16.230Z,1.70
2023-05-22T18:11:20.039Z,1.70
2023-05-22T18:16:25.196Z,1.77
2023-05-22T18:21:29.477Z,1.35
2023-05-22T18:26:33.436Z,1.67
2023-05-22T18:31:38.374Z,1.40
2023-05-22T18:36:42.289Z,2.28
2023-05-22T18:41:45.998Z,1.85
2023-05-22T18:46:51.111Z,1.60
2023-05-22T18:51:54.779Z,1.80
2023-05-22T18:56:58.335Z,2.07
2023-05-22T19:02:03.302Z,1.93
2023-05-22T19:07:07.959Z,2.45
2023-05-22T19:12:11.636Z,2.00
2023-05-22T19:17:16.736Z,1.73
2023-05-22T19:22:20.524Z,2.08
2023-05-22T19:27:24.181Z,2.03
2023-05-22T19:32:29.963Z,2.43
2023-05-22T19:37:33.728Z,2.47
2023-05-22T19:42:39.080Z,3.13
2023-05-22T19:47:44.068Z,3.30
2023-05-22T19:52:48.363Z,2.78
2023-05-22T19:57:51.905Z,3.45
2023-05-22T20:02:56.947Z,3.13
2023-05-22T20:08:00.759Z,2.62
2023-05-22T20:13:05.234Z,3.77
2023-05-22T20:23:14.776Z,2.90
2023-05-22T20:28:18.320Z,4.23
2023-05-22T20:33:23.669Z,4.05
2023-05-22T20:38:28.712Z,3.33
2023-05-22T20:43:32.258Z,3.85
2023-05-22T20:48:37.948Z,4.00
2023-05-22T20:53:41.610Z,3.47
2023-05-22T20:58:45.619Z,3.57
2023-05-22T21:03:51.523Z,3.60
2023-05-22T21:08:59.637Z,3.28
2023-05-22T21:14:03.238Z,3.65
2023-05-22T21:19:08.255Z,2.67
2023-05-22T21:24:12.213Z,4.47
2023-05-22T21:29:16.118Z,2.78
2023-05-22T21:34:21.065Z,3.43
2023-05-22T21:39:24.636Z,2.83
2023-05-22T21:44:28.244Z,3.20
2023-05-22T21:49:33.295Z,3.70
2023-05-22T21:54:36.893Z,2.85
2023-05-22T21:59:40.612Z,2.27
2023-05-22T22:04:45.534Z,2.53
2023-05-22T22:09:49.159Z,2.83
2023-05-22T22:14:53.077Z,2.30
2023-05-22T22:19:58.076Z,3.00
2023-05-22T22:25:01.631Z,2.47
